sensor_id;sensor_type;location;lat;lon;timestamp;P1;durP1;ratioP1;P2;durP2;ratioP2
7583;SDS011;3833;41.764;26.204;2023-07-30T00:01:53;6.27;;;5.80;;
7583;SDS011;3833;41.764;26.204;2023-07-30T00:04:19;5.47;;;5.13;;
7583;SDS011;3833;41.764;26.204;2023-07-30T00:06:46;5.50;;;5.20;;
7583;SDS011;3833;41.764;26.204;2023-07-30T00:09:14;5.47;;;5.17;;
7583;SDS011;3833;41.764;26.204;2023-07-30T00:11:41;5.80;;;5.30;;
7583;SDS011;3833;41.764;26.204;2023-07-30T00:14:08;5.03;;;4.73;;
7583;SDS011;3833;41.764;26.204;2023-07-30T00:16:35;5.73;;;5.33;;
7583;SDS011;3833;41.764;26.204;2023-07-30T00:19:02;6.43;;;5.87;;
7583;SDS011;3833;41.764;26.204;2023-07-30T00:21:29;4.93;;;4.13;;
7583;SDS011;3833;41.764;26.204;2023-07-30T00:23:55;4.07;;;3.33;;
7583;SDS011;3833;41.764;26.204;2023-07-30T00:26:23;4.77;;;4.47;;
7583;SDS011;3833;41.764;26.204;2023-07-30T00:28:51;5.17;;;4.77;;
7583;SDS011;3833;41.764;26.204;2023-07-30T00:31:18;5.30;;;4.90;;
7583;SDS011;3833;41.764;26.204;2023-07-30T00:33:45;5.47;;;5.07;;
7583;SDS011;3833;41.764;26.204;2023-07-30T00:36:11;6.57;;;5.43;;
7583;SDS011;3833;41.764;26.204;2023-07-30T00:38:38;5.23;;;4.93;;
7583;SDS011;3833;41.764;26.204;2023-07-30T00:41:05;5.80;;;5.50;;
7583;SDS011;3833;41.764;26.204;2023-07-30T00:43:33;4.80;;;4.53;;
7583;SDS011;3833;41.764;26.204;2023-07-30T00:46:00;5.23;;;4.93;;
7583;SDS011;3833;41.764;26.204;2023-07-30T00:48:27;5.83;;;5.53;;
7583;SDS011;3833;41.764;26.204;2023-07-30T00:50:54;6.20;;;5.83;;
7583;SDS011;3833;41.764;26.204;2023-07-30T00:53:22;6.30;;;6.00;;
7583;SDS011;3833;41.764;26.204;2023-07-30T00:55:50;5.50;;;5.10;;
7583;SDS011;3833;41.764;26.204;2023-07-30T00:58:17;6.13;;;5.80;;
7583;SDS011;3833;41.764;26.204;2023-07-30T01:00:46;6.00;;;5.50;;
7583;SDS011;3833;41.764;26.204;2023-07-30T01:03:13;5.43;;;5.03;;
7583;SDS011;3833;41.764;26.204;2023-07-30T01:05:40;6.00;;;5.40;;
7583;SDS011;3833;41.764;26.204;2023-07-30T01:08:07;4.63;;;4.23;;
7583;SDS011;3833;41.764;26.204;2023-07-30T01:10:35;5.83;;;5.43;;
7583;SDS011;3833;41.764;26.204;2023-07-30T01:13:02;5.53;;;5.23;;
7583;SDS011;3833;41.764;26.204;2023-07-30T01:15:30;3.03;;;2.83;;
7583;SDS011;3833;41.764;26.204;2023-07-30T01:17:58;2.60;;;2.40;;
7583;SDS011;3833;41.764;26.204;2023-07-30T01:20:29;2.47;;;2.27;;
7583;SDS011;3833;41.764;26.204;2023-07-30T01:22:57;2.60;;;2.17;;
7583;SDS011;3833;41.764;26.204;2023-07-30T01:25:24;5.17;;;2.93;;
7583;SDS011;3833;41.764;26.204;2023-07-30T01:27:52;5.50;;;5.10;;
7583;SDS011;3833;41.764;26.204;2023-07-30T01:30:21;5.23;;;4.93;;
7583;SDS011;3833;41.764;26.204;2023-07-30T01:32:50;6.53;;;6.13;;
7583;SDS011;3833;41.764;26.204;2023-07-30T01:35:19;4.30;;;4.03;;
7583;SDS011;3833;41.764;26.204;2023-07-30T01:37:47;4.30;;;2.70;;
7583;SDS011;3833;41.764;26.204;2023-07-30T01:40:15;3.60;;;2.37;;
7583;SDS011;3833;41.764;26.204;2023-07-30T01:42:42;3.80;;;2.30;;
7583;SDS011;3833;41.764;26.204;2023-07-30T01:45:09;6.80;;;6.30;;
7583;SDS011;3833;41.764;26.204;2023-07-30T01:47:36;4.47;;;4.17;;
7583;SDS011;3833;41.764;26.204;2023-07-30T01:50:03;6.60;;;6.07;;
7583;SDS011;3833;41.764;26.204;2023-07-30T01:52:30;6.70;;;6.20;;
7583;SDS011;3833;41.764;26.204;2023-07-30T01:54:57;5.27;;;2.43;;
7583;SDS011;3833;41.764;26.204;2023-07-30T01:57:27;2.50;;;2.30;;
7583;SDS011;3833;41.764;26.204;2023-07-30T01:59:54;2.40;;;2.20;;
7583;SDS011;3833;41.764;26.204;2023-07-30T02:02:21;7.23;;;6.57;;
7583;SDS011;3833;41.764;26.204;2023-07-30T02:04:48;6.40;;;5.83;;
7583;SDS011;3833;41.764;26.204;2023-07-30T02:07:15;4.07;;;3.57;;
7583;SDS011;3833;41.764;26.204;2023-07-30T02:09:42;4.60;;;4.30;;
7583;SDS011;3833;41.764;26.204;2023-07-30T02:12:09;5.30;;;5.00;;
7583;SDS011;3833;41.764;26.204;2023-07-30T02:14:37;3.10;;;2.80;;
7583;SDS011;3833;41.764;26.204;2023-07-30T02:17:04;2.53;;;2.33;;
7583;SDS011;3833;41.764;26.204;2023-07-30T02:19:31;2.30;;;2.10;;
7583;SDS011;3833;41.764;26.204;2023-07-30T02:21:58;5.07;;;2.80;;
7583;SDS011;3833;41.764;26.204;2023-07-30T02:24:25;6.10;;;5.60;;
7583;SDS011;3833;41.764;26.204;2023-07-30T02:26:52;6.60;;;6.20;;
7583;SDS011;3833;41.764;26.204;2023-07-30T02:29:19;8.23;;;7.73;;
7583;SDS011;3833;41.764;26.204;2023-07-30T02:31:47;9.77;;;9.17;;
7583;SDS011;3833;41.764;26.204;2023-07-30T02:34:14;8.87;;;8.37;;
7583;SDS011;3833;41.764;26.204;2023-07-30T02:36:40;9.50;;;8.80;;
7583;SDS011;3833;41.764;26.204;2023-07-30T02:39:07;9.00;;;8.60;;
7583;SDS011;3833;41.764;26.204;2023-07-30T02:41:34;2.93;;;2.33;;
7583;SDS011;3833;41.764;26.204;2023-07-30T02:44:01;2.50;;;2.30;;
7583;SDS011;3833;41.764;26.204;2023-07-30T02:46:28;2.87;;;2.60;;
7583;SDS011;3833;41.764;26.204;2023-07-30T02:48:56;2.73;;;2.53;;
7583;SDS011;3833;41.764;26.204;2023-07-30T02:51:23;9.77;;;8.87;;
7583;SDS011;3833;41.764;26.204;2023-07-30T02:53:51;6.20;;;5.63;;
7583;SDS011;3833;41.764;26.204;2023-07-30T02:56:18;9.93;;;9.17;;
7583;SDS011;3833;41.764;26.204;2023-07-30T02:58:45;9.20;;;8.70;;
7583;SDS011;3833;41.764;26.204;2023-07-30T03:01:12;3.77;;;2.50;;
7583;SDS011;3833;41.764;26.204;2023-07-30T03:03:39;5.57;;;2.87;;
7583;SDS011;3833;41.764;26.204;2023-07-30T03:06:07;6.77;;;2.67;;
7583;SDS011;3833;41.764;26.204;2023-07-30T03:08:34;3.67;;;2.57;;
7583;SDS011;3833;41.764;26.204;2023-07-30T03:11:02;6.47;;;3.40;;
7583;SDS011;3833;41.764;26.204;2023-07-30T03:13:29;3.97;;;3.00;;
7583;SDS011;3833;41.764;26.204;2023-07-30T03:15:55;11.07;;;10.07;;
7583;SDS011;3833;41.764;26.204;2023-07-30T03:18:22;11.83;;;10.77;;
7583;SDS011;3833;41.764;26.204;2023-07-30T03:20:49;10.60;;;10.00;;
7583;SDS011;3833;41.764;26.204;2023-07-30T03:23:17;6.00;;;5.40;;
7583;SDS011;3833;41.764;26.204;2023-07-30T03:25:44;6.37;;;2.90;;
7583;SDS011;3833;41.764;26.204;2023-07-30T03:28:11;5.60;;;2.93;;
7583;SDS011;3833;41.764;26.204;2023-07-30T03:30:38;3.53;;;2.80;;
7583;SDS011;3833;41.764;26.204;2023-07-30T03:33:04;3.17;;;2.83;;
7583;SDS011;3833;41.764;26.204;2023-07-30T03:35:31;3.33;;;3.03;;
7583;SDS011;3833;41.764;26.204;2023-07-30T03:37:58;2.60;;;2.40;;
7583;SDS011;3833;41.764;26.204;2023-07-30T03:40:26;3.13;;;2.83;;
7583;SDS011;3833;41.764;26.204;2023-07-30T03:42:53;9.67;;;8.97;;
7583;SDS011;3833;41.764;26.204;2023-07-30T03:45:20;11.10;;;10.50;;
7583;SDS011;3833;41.764;26.204;2023-07-30T03:47:47;10.90;;;10.30;;
7583;SDS011;3833;41.764;26.204;2023-07-30T03:50:14;5.80;;;5.33;;
7583;SDS011;3833;41.764;26.204;2023-07-30T03:52:41;3.00;;;2.50;;
7583;SDS011;3833;41.764;26.204;2023-07-30T03:55:07;2.97;;;2.77;;
7583;SDS011;3833;41.764;26.204;2023-07-30T03:57:36;3.40;;;2.70;;
7583;SDS011;3833;41.764;26.204;2023-07-30T04:00:03;3.60;;;2.53;;
7583;SDS011;3833;41.764;26.204;2023-07-30T04:02:31;3.90;;;2.80;;
7583;SDS011;3833;41.764;26.204;2023-07-30T04:04:57;3.20;;;2.90;;
7583;SDS011;3833;41.764;26.204;2023-07-30T04:07:24;5.20;;;3.47;;
7583;SDS011;3833;41.764;26.204;2023-07-30T04:09:51;6.47;;;6.07;;
7583;SDS011;3833;41.764;26.204;2023-07-30T04:12:18;10.87;;;10.27;;
7583;SDS011;3833;41.764;26.204;2023-07-30T04:14:48;11.73;;;11.23;;
7583;SDS011;3833;41.764;26.204;2023-07-30T04:17:14;6.83;;;6.23;;
7583;SDS011;3833;41.764;26.204;2023-07-30T04:19:41;4.00;;;3.30;;
7583;SDS011;3833;41.764;26.204;2023-07-30T04:22:08;3.03;;;2.60;;
7583;SDS011;3833;41.764;26.204;2023-07-30T04:24:35;3.67;;;2.67;;
7583;SDS011;3833;41.764;26.204;2023-07-30T04:27:02;3.77;;;3.10;;
7583;SDS011;3833;41.764;26.204;2023-07-30T04:29:29;3.93;;;2.77;;
7583;SDS011;3833;41.764;26.204;2023-07-30T04:31:57;3.07;;;2.87;;
7583;SDS011;3833;41.764;26.204;2023-07-30T04:34:24;3.10;;;2.80;;
7583;SDS011;3833;41.764;26.204;2023-07-30T04:36:51;3.63;;;3.10;;
7583;SDS011;3833;41.764;26.204;2023-07-30T04:39:18;4.10;;;3.33;;
7583;SDS011;3833;41.764;26.204;2023-07-30T04:41:45;4.17;;;3.27;;
7583;SDS011;3833;41.764;26.204;2023-07-30T04:44:12;5.93;;;3.60;;
7583;SDS011;3833;41.764;26.204;2023-07-30T04:46:38;5.77;;;3.40;;
7583;SDS011;3833;41.764;26.204;2023-07-30T04:49:07;3.63;;;3.33;;
7583;SDS011;3833;41.764;26.204;2023-07-30T04:51:33;4.57;;;3.47;;
7583;SDS011;3833;41.764;26.204;2023-07-30T04:54:01;3.50;;;3.00;;
7583;SDS011;3833;41.764;26.204;2023-07-30T04:56:27;3.73;;;3.40;;
7583;SDS011;3833;41.764;26.204;2023-07-30T04:58:54;4.43;;;2.50;;
7583;SDS011;3833;41.764;26.204;2023-07-30T05:01:21;2.93;;;2.73;;
7583;SDS011;3833;41.764;26.204;2023-07-30T05:03:48;3.60;;;3.30;;
7583;SDS011;3833;41.764;26.204;2023-07-30T05:06:16;6.67;;;3.10;;
7583;SDS011;3833;41.764;26.204;2023-07-30T05:08:43;5.90;;;2.90;;
7583;SDS011;3833;41.764;26.204;2023-07-30T05:11:10;3.60;;;3.20;;
7583;SDS011;3833;41.764;26.204;2023-07-30T05:13:36;4.33;;;3.87;;
7583;SDS011;3833;41.764;26.204;2023-07-30T05:16:03;6.13;;;3.40;;
7583;SDS011;3833;41.764;26.204;2023-07-30T05:18:30;3.50;;;3.20;;
7583;SDS011;3833;41.764;26.204;2023-07-30T05:20:57;3.27;;;2.90;;
7583;SDS011;3833;41.764;26.204;2023-07-30T05:23:25;4.67;;;3.37;;
7583;SDS011;3833;41.764;26.204;2023-07-30T05:25:52;5.60;;;3.60;;
7583;SDS011;3833;41.764;26.204;2023-07-30T05:28:19;4.73;;;3.37;;
7583;SDS011;3833;41.764;26.204;2023-07-30T05:30:46;4.23;;;3.20;;
7583;SDS011;3833;41.764;26.204;2023-07-30T05:33:12;4.17;;;3.60;;
7583;SDS011;3833;41.764;26.204;2023-07-30T05:35:39;4.50;;;3.57;;
7583;SDS011;3833;41.764;26.204;2023-07-30T05:38:06;3.33;;;3.00;;
7583;SDS011;3833;41.764;26.204;2023-07-30T05:40:35;4.30;;;3.10;;
7583;SDS011;3833;41.764;26.204;2023-07-30T05:43:01;5.27;;;3.30;;
7583;SDS011;3833;41.764;26.204;2023-07-30T05:45:29;3.87;;;3.47;;
7583;SDS011;3833;41.764;26.204;2023-07-30T05:47:56;3.60;;;3.27;;
7583;SDS011;3833;41.764;26.204;2023-07-30T05:50:23;4.00;;;3.00;;
7583;SDS011;3833;41.764;26.204;2023-07-30T05:52:49;4.17;;;3.37;;
7583;SDS011;3833;41.764;26.204;2023-07-30T05:55:16;3.80;;;3.40;;
7583;SDS011;3833;41.764;26.204;2023-07-30T05:57:45;3.43;;;3.13;;
7583;SDS011;3833;41.764;26.204;2023-07-30T06:00:11;3.63;;;3.33;;
7583;SDS011;3833;41.764;26.204;2023-07-30T06:02:38;3.10;;;2.80;;
7583;SDS011;3833;41.764;26.204;2023-07-30T06:05:05;4.83;;;3.00;;
7583;SDS011;3833;41.764;26.204;2023-07-30T06:07:33;3.50;;;3.20;;
7583;SDS011;3833;41.764;26.204;2023-07-30T06:10:00;4.37;;;3.27;;
7583;SDS011;3833;41.764;26.204;2023-07-30T06:12:27;3.57;;;3.23;;
7583;SDS011;3833;41.764;26.204;2023-07-30T06:14:55;4.43;;;3.03;;
7583;SDS011;3833;41.764;26.204;2023-07-30T06:17:22;4.80;;;3.03;;
7583;SDS011;3833;41.764;26.204;2023-07-30T06:19:49;5.53;;;3.40;;
7583;SDS011;3833;41.764;26.204;2023-07-30T06:22:15;4.57;;;3.13;;
7583;SDS011;3833;41.764;26.204;2023-07-30T06:24:42;3.40;;;3.10;;
7583;SDS011;3833;41.764;26.204;2023-07-30T06:27:09;3.97;;;3.63;;
7583;SDS011;3833;41.764;26.204;2023-07-30T06:29:37;3.10;;;2.90;;
7583;SDS011;3833;41.764;26.204;2023-07-30T06:32:06;5.20;;;3.27;;
7583;SDS011;3833;41.764;26.204;2023-07-30T06:34:33;5.10;;;3.63;;
7583;SDS011;3833;41.764;26.204;2023-07-30T06:37:00;3.37;;;3.07;;
7583;SDS011;3833;41.764;26.204;2023-07-30T06:39:27;3.60;;;3.30;;
7583;SDS011;3833;41.764;26.204;2023-07-30T06:41:54;7.63;;;3.07;;
7583;SDS011;3833;41.764;26.204;2023-07-30T06:44:21;4.30;;;3.30;;
7583;SDS011;3833;41.764;26.204;2023-07-30T06:46:49;3.90;;;3.10;;
7583;SDS011;3833;41.764;26.204;2023-07-30T06:49:18;3.33;;;3.00;;
7583;SDS011;3833;41.764;26.204;2023-07-30T06:51:45;3.70;;;3.40;;
7583;SDS011;3833;41.764;26.204;2023-07-30T06:54:12;3.47;;;3.17;;
7583;SDS011;3833;41.764;26.204;2023-07-30T06:56:38;4.40;;;3.43;;
7583;SDS011;3833;41.764;26.204;2023-07-30T06:59:05;3.70;;;2.97;;
7583;SDS011;3833;41.764;26.204;2023-07-30T07:01:32;3.10;;;2.80;;
7583;SDS011;3833;41.764;26.204;2023-07-30T07:03:59;3.30;;;3.10;;
7583;SDS011;3833;41.764;26.204;2023-07-30T07:06:27;2.97;;;2.77;;
7583;SDS011;3833;41.764;26.204;2023-07-30T07:08:54;3.40;;;3.00;;
7583;SDS011;3833;41.764;26.204;2023-07-30T07:11:21;3.60;;;2.60;;
7583;SDS011;3833;41.764;26.204;2023-07-30T07:13:48;7.13;;;2.67;;
7583;SDS011;3833;41.764;26.204;2023-07-30T07:16:15;3.03;;;2.70;;
7583;SDS011;3833;41.764;26.204;2023-07-30T07:18:42;3.53;;;2.93;;
7583;SDS011;3833;41.764;26.204;2023-07-30T07:21:09;4.33;;;2.97;;
7583;SDS011;3833;41.764;26.204;2023-07-30T07:23:38;3.73;;;2.87;;
7583;SDS011;3833;41.764;26.204;2023-07-30T07:26:04;4.10;;;3.00;;
7583;SDS011;3833;41.764;26.204;2023-07-30T07:28:31;3.07;;;2.63;;
7583;SDS011;3833;41.764;26.204;2023-07-30T07:30:58;4.33;;;2.80;;
7583;SDS011;3833;41.764;26.204;2023-07-30T07:33:25;3.83;;;2.90;;
7583;SDS011;3833;41.764;26.204;2023-07-30T07:35:52;3.57;;;3.07;;
7583;SDS011;3833;41.764;26.204;2023-07-30T07:38:29;5.47;;;3.20;;
7583;SDS011;3833;41.764;26.204;2023-07-30T07:40:57;3.17;;;2.77;;
7583;SDS011;3833;41.764;26.204;2023-07-30T07:43:24;3.23;;;2.90;;
7583;SDS011;3833;41.764;26.204;2023-07-30T07:45:51;2.80;;;2.60;;
7583;SDS011;3833;41.764;26.204;2023-07-30T07:48:18;5.10;;;3.23;;
7583;SDS011;3833;41.764;26.204;2023-07-30T07:50:45;3.53;;;2.83;;
7583;SDS011;3833;41.764;26.204;2023-07-30T07:53:12;6.13;;;2.80;;
7583;SDS011;3833;41.764;26.204;2023-07-30T07:55:39;2.80;;;2.60;;
7583;SDS011;3833;41.764;26.204;2023-07-30T07:58:07;3.77;;;3.13;;
7583;SDS011;3833;41.764;26.204;2023-07-30T08:00:34;3.33;;;3.07;;
7583;SDS011;3833;41.764;26.204;2023-07-30T08:03:01;3.03;;;2.77;;
7583;SDS011;3833;41.764;26.204;2023-07-30T08:05:28;3.60;;;3.07;;
7583;SDS011;3833;41.764;26.204;2023-07-30T08:07:55;4.70;;;2.90;;
7583;SDS011;3833;41.764;26.204;2023-07-30T08:10:22;7.20;;;3.33;;
7583;SDS011;3833;41.764;26.204;2023-07-30T08:12:49;4.07;;;2.53;;
7583;SDS011;3833;41.764;26.204;2023-07-30T08:15:17;3.23;;;2.50;;
7583;SDS011;3833;41.764;26.204;2023-07-30T08:17:44;3.00;;;2.60;;
7583;SDS011;3833;41.764;26.204;2023-07-30T08:20:11;3.00;;;2.70;;
7583;SDS011;3833;41.764;26.204;2023-07-30T08:22:38;3.07;;;2.50;;
7583;SDS011;3833;41.764;26.204;2023-07-30T08:25:05;4.63;;;2.80;;
7583;SDS011;3833;41.764;26.204;2023-07-30T08:27:33;3.57;;;2.90;;
7583;SDS011;3833;41.764;26.204;2023-07-30T08:30:00;4.00;;;2.67;;
7583;SDS011;3833;41.764;26.204;2023-07-30T08:32:28;3.87;;;2.53;;
7583;SDS011;3833;41.764;26.204;2023-07-30T08:34:55;5.23;;;3.03;;
7583;SDS011;3833;41.764;26.204;2023-07-30T08:37:22;4.60;;;2.87;;
7583;SDS011;3833;41.764;26.204;2023-07-30T08:39:49;3.73;;;2.63;;
7583;SDS011;3833;41.764;26.204;2023-07-30T08:42:16;3.57;;;3.00;;
7583;SDS011;3833;41.764;26.204;2023-07-30T08:44:43;35.67;;;7.23;;
7583;SDS011;3833;41.764;26.204;2023-07-30T08:47:10;6.70;;;3.27;;
7583;SDS011;3833;41.764;26.204;2023-07-30T08:49:38;5.33;;;3.10;;
7583;SDS011;3833;41.764;26.204;2023-07-30T08:52:08;5.50;;;2.83;;
7583;SDS011;3833;41.764;26.204;2023-07-30T08:54:36;3.57;;;2.70;;
7583;SDS011;3833;41.764;26.204;2023-07-30T08:57:04;3.53;;;2.60;;
7583;SDS011;3833;41.764;26.204;2023-07-30T08:59:31;3.17;;;2.87;;
7583;SDS011;3833;41.764;26.204;2023-07-30T09:02:04;3.03;;;2.60;;
7583;SDS011;3833;41.764;26.204;2023-07-30T09:04:39;3.10;;;2.70;;
7583;SDS011;3833;41.764;26.204;2023-07-30T09:07:08;4.10;;;2.73;;
7583;SDS011;3833;41.764;26.204;2023-07-30T09:09:35;4.03;;;2.90;;
7583;SDS011;3833;41.764;26.204;2023-07-30T09:12:03;4.17;;;3.30;;
7583;SDS011;3833;41.764;26.204;2023-07-30T09:14:31;2.88;;;2.67;;
7583;SDS011;3833;41.764;26.204;2023-07-30T09:16:58;3.90;;;2.67;;
7583;SDS011;3833;41.764;26.204;2023-07-30T09:19:25;2.80;;;2.60;;
7583;SDS011;3833;41.764;26.204;2023-07-30T09:21:54;4.50;;;2.67;;
7583;SDS011;3833;41.764;26.204;2023-07-30T09:24:21;2.92;;;2.40;;
7583;SDS011;3833;41.764;26.204;2023-07-30T09:26:48;2.83;;;2.60;;
7583;SDS011;3833;41.764;26.204;2023-07-30T09:29:15;5.93;;;2.80;;
7583;SDS011;3833;41.764;26.204;2023-07-30T09:31:51;3.05;;;2.85;;
7583;SDS011;3833;41.764;26.204;2023-07-30T09:34:20;3.05;;;2.33;;
7583;SDS011;3833;41.764;26.204;2023-07-30T09:36:47;3.67;;;2.60;;
7583;SDS011;3833;41.764;26.204;2023-07-30T09:39:19;4.38;;;2.45;;
7583;SDS011;3833;41.764;26.204;2023-07-30T09:41:46;4.97;;;3.03;;
7583;SDS011;3833;41.764;26.204;2023-07-30T09:44:15;6.32;;;2.78;;
7583;SDS011;3833;41.764;26.204;2023-07-30T09:46:42;3.63;;;2.83;;
7583;SDS011;3833;41.764;26.204;2023-07-30T09:49:10;2.83;;;2.58;;
7583;SDS011;3833;41.764;26.204;2023-07-30T09:51:37;2.70;;;2.50;;
7583;SDS011;3833;41.764;26.204;2023-07-30T09:54:05;2.78;;;2.58;;
7583;SDS011;3833;41.764;26.204;2023-07-30T09:56:35;4.47;;;2.67;;
7583;SDS011;3833;41.764;26.204;2023-07-30T09:59:02;2.95;;;2.72;;
7583;SDS011;3833;41.764;26.204;2023-07-30T10:01:30;3.20;;;2.90;;
7583;SDS011;3833;41.764;26.204;2023-07-30T10:03:58;4.32;;;2.30;;
7583;SDS011;3833;41.764;26.204;2023-07-30T10:06:25;3.38;;;2.90;;
7583;SDS011;3833;41.764;26.204;2023-07-30T10:08:54;6.25;;;5.65;;
7583;SDS011;3833;41.764;26.204;2023-07-30T10:11:24;4.13;;;3.72;;
7583;SDS011;3833;41.764;26.204;2023-07-30T10:13:53;2.75;;;2.53;;
7583;SDS011;3833;41.764;26.204;2023-07-30T10:16:24;3.17;;;2.72;;
7583;SDS011;3833;41.764;26.204;2023-07-30T10:18:55;2.95;;;2.75;;
7583;SDS011;3833;41.764;26.204;2023-07-30T10:21:23;2.65;;;2.28;;
7583;SDS011;3833;41.764;26.204;2023-07-30T10:23:58;3.28;;;2.60;;
7583;SDS011;3833;41.764;26.204;2023-07-30T10:26:29;3.03;;;2.60;;
7583;SDS011;3833;41.764;26.204;2023-07-30T10:29:14;3.78;;;2.72;;
7583;SDS011;3833;41.764;26.204;2023-07-30T10:31:43;3.28;;;2.60;;
7583;SDS011;3833;41.764;26.204;2023-07-30T10:34:14;3.20;;;2.90;;
7583;SDS011;3833;41.764;26.204;2023-07-30T10:36:42;3.75;;;2.78;;
7583;SDS011;3833;41.764;26.204;2023-07-30T10:39:10;3.22;;;2.83;;
7583;SDS011;3833;41.764;26.204;2023-07-30T10:41:39;6.38;;;3.03;;
7583;SDS011;3833;41.764;26.204;2023-07-30T10:44:06;2.58;;;2.38;;
7583;SDS011;3833;41.764;26.204;2023-07-30T10:46:34;3.20;;;2.90;;
7583;SDS011;3833;41.764;26.204;2023-07-30T10:49:03;3.38;;;2.63;;
7583;SDS011;3833;41.764;26.204;2023-07-30T10:51:31;3.33;;;2.70;;
7583;SDS011;3833;41.764;26.204;2023-07-30T10:53:58;3.88;;;2.92;;
7583;SDS011;3833;41.764;26.204;2023-07-30T10:56:25;4.88;;;3.63;;
7583;SDS011;3833;41.764;26.204;2023-07-30T10:58:53;5.07;;;2.85;;
7583;SDS011;3833;41.764;26.204;2023-07-30T11:01:22;2.70;;;2.50;;
7583;SDS011;3833;41.764;26.204;2023-07-30T11:03:52;3.47;;;2.78;;
7583;SDS011;3833;41.764;26.204;2023-07-30T11:06:22;2.70;;;2.50;;
7583;SDS011;3833;41.764;26.204;2023-07-30T11:08:49;3.03;;;2.72;;
7583;SDS011;3833;41.764;26.204;2023-07-30T11:11:16;2.35;;;2.25;;
7583;SDS011;3833;41.764;26.204;2023-07-30T11:13:44;2.50;;;2.30;;
7583;SDS011;3833;41.764;26.204;2023-07-30T11:16:12;3.38;;;3.08;;
7583;SDS011;3833;41.764;26.204;2023-07-30T11:18:39;3.17;;;2.92;;
7583;SDS011;3833;41.764;26.204;2023-07-30T11:21:11;6.43;;;2.35;;
7583;SDS011;3833;41.764;26.204;2023-07-30T11:23:40;3.42;;;2.88;;
7583;SDS011;3833;41.764;26.204;2023-07-30T11:26:08;2.95;;;2.75;;
7583;SDS011;3833;41.764;26.204;2023-07-30T11:28:37;2.88;;;2.65;;
7583;SDS011;3833;41.764;26.204;2023-07-30T11:31:05;3.00;;;2.80;;
7583;SDS011;3833;41.764;26.204;2023-07-30T11:33:33;5.60;;;2.70;;
7583;SDS011;3833;41.764;26.204;2023-07-30T11:36:02;2.75;;;2.50;;
7583;SDS011;3833;41.764;26.204;2023-07-30T11:38:32;3.05;;;2.47;;
7583;SDS011;3833;41.764;26.204;2023-07-30T11:40:59;2.85;;;2.58;;
7583;SDS011;3833;41.764;26.204;2023-07-30T11:43:27;2.80;;;2.60;;
7583;SDS011;3833;41.764;26.204;2023-07-30T11:46:07;2.78;;;2.58;;
7583;SDS011;3833;41.764;26.204;2023-07-30T11:48:35;2.72;;;2.38;;
7583;SDS011;3833;41.764;26.204;2023-07-30T11:51:02;2.65;;;2.45;;
7583;SDS011;3833;41.764;26.204;2023-07-30T11:53:46;2.58;;;2.38;;
7583;SDS011;3833;41.764;26.204;2023-07-30T11:56:18;2.50;;;2.28;;
7583;SDS011;3833;41.764;26.204;2023-07-30T11:58:50;3.33;;;2.30;;
7583;SDS011;3833;41.764;26.204;2023-07-30T12:01:22;3.08;;;2.50;;
7583;SDS011;3833;41.764;26.204;2023-07-30T12:03:54;3.03;;;2.53;;
7583;SDS011;3833;41.764;26.204;2023-07-30T12:06:21;2.78;;;2.50;;
7583;SDS011;3833;41.764;26.204;2023-07-30T12:08:50;3.70;;;2.90;;
7583;SDS011;3833;41.764;26.204;2023-07-30T12:11:19;3.97;;;2.55;;
7583;SDS011;3833;41.764;26.204;2023-07-30T12:13:46;2.60;;;2.40;;
7583;SDS011;3833;41.764;26.204;2023-07-30T12:16:15;3.00;;;2.65;;
7583;SDS011;3833;41.764;26.204;2023-07-30T12:18:42;2.92;;;2.67;;
7583;SDS011;3833;41.764;26.204;2023-07-30T12:21:09;3.20;;;2.78;;
7583;SDS011;3833;41.764;26.204;2023-07-30T12:23:37;2.75;;;2.55;;
7583;SDS011;3833;41.764;26.204;2023-07-30T12:26:06;2.75;;;2.50;;
7583;SDS011;3833;41.764;26.204;2023-07-30T12:28:33;3.42;;;2.78;;
7583;SDS011;3833;41.764;26.204;2023-07-30T12:31:00;2.55;;;2.40;;
7583;SDS011;3833;41.764;26.204;2023-07-30T12:33:27;2.45;;;2.25;;
7583;SDS011;3833;41.764;26.204;2023-07-30T12:35:54;4.28;;;2.72;;
7583;SDS011;3833;41.764;26.204;2023-07-30T12:38:24;3.80;;;2.78;;
7583;SDS011;3833;41.764;26.204;2023-07-30T12:40:51;3.03;;;2.83;;
7583;SDS011;3833;41.764;26.204;2023-07-30T12:43:19;3.15;;;2.95;;
7583;SDS011;3833;41.764;26.204;2023-07-30T12:45:46;3.58;;;2.90;;
7583;SDS011;3833;41.764;26.204;2023-07-30T12:48:14;2.80;;;2.60;;
7583;SDS011;3833;41.764;26.204;2023-07-30T12:50:41;2.88;;;2.67;;
7583;SDS011;3833;41.764;26.204;2023-07-30T12:53:08;3.08;;;2.88;;
7583;SDS011;3833;41.764;26.204;2023-07-30T12:55:35;3.53;;;3.08;;
7583;SDS011;3833;41.764;26.204;2023-07-30T12:58:03;3.20;;;2.90;;
7583;SDS011;3833;41.764;26.204;2023-07-30T13:00:32;2.95;;;2.75;;
7583;SDS011;3833;41.764;26.204;2023-07-30T13:03:00;2.97;;;2.78;;
7583;SDS011;3833;41.764;26.204;2023-07-30T13:05:27;3.55;;;2.60;;
7583;SDS011;3833;41.764;26.204;2023-07-30T13:07:54;2.95;;;2.75;;
7583;SDS011;3833;41.764;26.204;2023-07-30T13:10:21;2.85;;;2.42;;
7583;SDS011;3833;41.764;26.204;2023-07-30T13:12:48;3.08;;;2.78;;
7583;SDS011;3833;41.764;26.204;2023-07-30T13:15:15;4.03;;;2.90;;
7583;SDS011;3833;41.764;26.204;2023-07-30T13:17:43;3.10;;;2.90;;
7583;SDS011;3833;41.764;26.204;2023-07-30T13:20:11;3.20;;;3.00;;
7583;SDS011;3833;41.764;26.204;2023-07-30T13:22:38;4.50;;;3.25;;
7583;SDS011;3833;41.764;26.204;2023-07-30T13:25:07;3.08;;;2.88;;
7583;SDS011;3833;41.764;26.204;2023-07-30T13:27:34;3.33;;;2.88;;
7583;SDS011;3833;41.764;26.204;2023-07-30T13:30:01;3.60;;;2.75;;
7583;SDS011;3833;41.764;26.204;2023-07-30T13:32:28;2.78;;;2.58;;
7583;SDS011;3833;41.764;26.204;2023-07-30T13:34:56;2.78;;;2.58;;
7583;SDS011;3833;41.764;26.204;2023-07-30T13:37:23;3.15;;;2.80;;
7583;SDS011;3833;41.764;26.204;2023-07-30T13:39:51;3.75;;;2.78;;
7583;SDS011;3833;41.764;26.204;2023-07-30T13:42:18;3.65;;;3.10;;
7583;SDS011;3833;41.764;26.204;2023-07-30T13:44:45;2.95;;;2.75;;
7583;SDS011;3833;41.764;26.204;2023-07-30T13:47:13;3.00;;;2.80;;
7583;SDS011;3833;41.764;26.204;2023-07-30T13:49:40;3.30;;;3.10;;
7583;SDS011;3833;41.764;26.204;2023-07-30T13:52:09;3.25;;;2.95;;
7583;SDS011;3833;41.764;26.204;2023-07-30T13:54:38;3.22;;;3.00;;
7583;SDS011;3833;41.764;26.204;2023-07-30T13:57:07;3.22;;;2.97;;
7583;SDS011;3833;41.764;26.204;2023-07-30T13:59:34;2.85;;;2.60;;
7583;SDS011;3833;41.764;26.204;2023-07-30T14:02:01;3.17;;;2.90;;
7583;SDS011;3833;41.764;26.204;2023-07-30T14:04:28;3.60;;;3.30;;
7583;SDS011;3833;41.764;26.204;2023-07-30T14:06:55;3.28;;;3.08;;
7583;SDS011;3833;41.764;26.204;2023-07-30T14:09:23;3.80;;;3.50;;
7583;SDS011;3833;41.764;26.204;2023-07-30T14:11:57;3.67;;;3.22;;
7583;SDS011;3833;41.764;26.204;2023-07-30T14:14:24;3.83;;;3.47;;
7583;SDS011;3833;41.764;26.204;2023-07-30T14:16:52;3.60;;;3.05;;
7583;SDS011;3833;41.764;26.204;2023-07-30T14:19:19;4.43;;;3.45;;
7583;SDS011;3833;41.764;26.204;2023-07-30T14:21:46;3.50;;;3.30;;
7583;SDS011;3833;41.764;26.204;2023-07-30T14:24:13;3.83;;;3.53;;
7583;SDS011;3833;41.764;26.204;2023-07-30T14:26:42;3.65;;;3.35;;
7583;SDS011;3833;41.764;26.204;2023-07-30T14:29:08;3.30;;;3.08;;
7583;SDS011;3833;41.764;26.204;2023-07-30T14:31:36;3.50;;;3.25;;
7583;SDS011;3833;41.764;26.204;2023-07-30T14:34:03;3.75;;;3.35;;
7583;SDS011;3833;41.764;26.204;2023-07-30T14:36:29;3.72;;;3.22;;
7583;SDS011;3833;41.764;26.204;2023-07-30T14:38:56;3.72;;;3.33;;
7583;SDS011;3833;41.764;26.204;2023-07-30T14:41:23;4.18;;;3.88;;
7583;SDS011;3833;41.764;26.204;2023-07-30T14:43:52;3.63;;;3.33;;
7583;SDS011;3833;41.764;26.204;2023-07-30T14:46:19;3.95;;;3.63;;
7583;SDS011;3833;41.764;26.204;2023-07-30T14:48:46;3.90;;;3.60;;
7583;SDS011;3833;41.764;26.204;2023-07-30T14:51:13;4.13;;;3.72;;
7583;SDS011;3833;41.764;26.204;2023-07-30T14:53:40;3.75;;;3.35;;
7583;SDS011;3833;41.764;26.204;2023-07-30T14:56:08;3.50;;;3.20;;
7583;SDS011;3833;41.764;26.204;2023-07-30T14:58:35;3.88;;;3.50;;
7583;SDS011;3833;41.764;26.204;2023-07-30T15:01:03;3.55;;;3.25;;
7583;SDS011;3833;41.764;26.204;2023-07-30T15:03:30;3.70;;;3.40;;